Time;durP1;ratioP1;P1;durP2;ratioP2;P2;SDS_P1;SDS_P2;PMS_P1;PMS_P2;Temp;Humidity;BMP_temperature;BMP_pressure;BME280_temperature;BME280_humidity;BME280_pressure;Samples;Min_cycle;Max_cycle;Signal;HPM_P1;HPM_P2
2021/08/23 17:14:34;;;;;;;3.60;2.08;;;23.40;78.40;;;;;;5080560;27;1329639;-86
2021/08/23 17:17:00;;;;;;;4.03;3.03;;;23.00;80.00;;;;;;5095807;28;20356;-84
2021/08/23 17:19:26;;;;;;;3.42;2.72;;;22.80;80.60;;;;;;5096117;28;20031;-86
2021/08/23 17:21:51;;;;;;;3.78;3.17;;;22.60;81.30;;;;;;5095874;28;20028;-84
2021/08/23 17:24:17;;;;;;;3.22;2.60;;;22.50;81.90;;;;;;5095192;28;20107;-85
2021/08/23 17:26:43;;;;;;;3.03;2.60;;;22.40;82.00;;;;;;5094682;28;20020;-86
2021/08/23 17:29:09;;;;;;;4.05;2.65;;;22.40;82.60;;;;;;5093320;28;20024;-84
2021/08/23 17:31:34;;;;;;;5.40;2.67;;;22.30;82.80;;;;;;5094723;28;20037;-85
2021/08/23 17:34:00;;;;;;;3.58;2.40;;;22.20;83.00;;;;;;5094383;28;20051;-86
2021/08/23 17:36:26;;;;;;;3.92;2.75;;;22.20;83.30;;;;;;5093621;28;20058;-85
2021/08/23 17:38:51;;;;;;;5.68;2.60;;;22.20;83.50;;;;;;5095906;28;20387;-84
2021/08/23 17:41:17;;;;;;;3.20;2.50;;;22.10;83.60;;;;;;5094523;28;20435;-86
2021/08/23 17:43:42;;;;;;;3.10;2.35;;;22.10;83.00;;;;;;5092518;28;20063;-83
2021/08/23 17:46:08;;;;;;;3.33;2.55;;;22.10;83.10;;;;;;5110143;28;20032;-83
2021/08/23 17:48:34;;;;;;;4.60;2.38;;;22.00;82.70;;;;;;5091891;28;20027;-82
2021/08/23 17:50:59;;;;;;;2.80;2.28;;;22.00;82.70;;;;;;5110331;28;20027;-83
2021/08/23 17:53:25;;;;;;;2.90;2.38;;;22.00;83.10;;;;;;5110561;28;20035;-82
2021/08/23 17:55:51;;;;;;;2.83;2.30;;;22.00;83.10;;;;;;5082440;22;20104;-87
2021/08/23 17:58:16;;;;;;;2.60;2.40;;;22.00;83.60;;;;;;5067646;28;20135;-82
2021/08/23 18:00:43;;;;;;;3.13;2.30;;;21.90;83.50;;;;;;5047592;28;20075;-87
2021/08/23 18:03:08;;;;;;;3.97;2.42;;;21.90;84.70;;;;;;5040256;28;20465;-83
2021/08/23 18:05:34;;;;;;;4.90;2.40;;;21.80;84.20;;;;;;5052964;28;20128;-88
2021/08/23 18:08:20;;;;;;;4.25;2.70;;;21.70;84.10;;;;;;5052316;28;20124;-86
2021/08/23 18:10:46;;;;;;;3.80;2.65;;;21.70;83.80;;;;;;5052382;28;20024;-88
2021/08/23 18:13:12;;;;;;;4.28;2.90;;;21.60;84.50;;;;;;5055052;28;20051;-88
2021/08/23 18:15:38;;;;;;;4.82;2.50;;;21.60;84.40;;;;;;5055578;28;20037;-86
2021/08/23 18:18:04;;;;;;;4.38;2.67;;;21.50;84.70;;;;;;5071429;28;20078;-84
2021/08/23 18:20:30;;;;;;;3.60;2.67;;;21.50;85.20;;;;;;5073175;28;20032;-85
2021/08/23 18:22:55;;;;;;;3.05;2.65;;;21.50;85.70;;;;;;5055323;28;20140;-86
2021/08/23 18:25:24;;;;;;;3.70;2.60;;;21.40;86.10;;;;;;5043776;28;20542;-85
2021/08/23 18:27:50;;;;;;;4.35;2.78;;;21.40;86.90;;;;;;5041222;28;20100;-84
2021/08/23 18:30:15;;;;;;;3.05;2.47;;;21.30;86.50;;;;;;5038059;28;20524;-85
2021/08/23 18:32:41;;;;;;;4.68;2.42;;;21.30;86.40;;;;;;5040627;28;20523;-87
2021/08/23 18:35:07;;;;;;;3.50;2.88;;;21.30;86.80;;;;;;5043084;28;20025;-89
2021/08/23 18:37:36;;;;;;;3.58;2.72;;;21.30;87.60;;;;;;5060933;28;20040;-86
2021/08/23 18:40:02;;;;;;;4.65;2.78;;;21.20;87.80;;;;;;5041116;28;20401;-87
2021/08/23 18:42:28;;;;;;;4.72;2.63;;;21.20;87.60;;;;;;5039133;28;20128;-85
2021/08/23 18:44:54;;;;;;;2.78;2.40;;;21.20;88.10;;;;;;5038984;28;20064;-85
2021/08/23 18:47:20;;;;;;;3.47;2.63;;;21.10;88.10;;;;;;5037963;28;20500;-85
2021/08/23 18:49:47;;;;;;;3.80;2.60;;;21.10;88.40;;;;;;5037959;28;20470;-82
2021/08/23 18:52:12;;;;;;;2.95;2.40;;;21.10;88.50;;;;;;5054672;28;20056;-82
2021/08/23 18:54:38;;;;;;;3.83;2.72;;;21.00;88.70;;;;;;5036702;28;20033;-81
2021/08/23 18:57:04;;;;;;;2.90;2.55;;;21.00;88.70;;;;;;5037192;28;20438;-86
2021/08/23 18:59:30;;;;;;;3.45;2.78;;;21.00;89.00;;;;;;5037088;28;20036;-82
2021/08/23 19:01:56;;;;;;;3.85;2.50;;;21.00;89.40;;;;;;5036130;28;20025;-82
2021/08/23 19:04:21;;;;;;;3.42;2.60;;;21.00;89.40;;;;;;5035965;28;20045;-81
2021/08/23 19:06:47;;;;;;;3.72;2.88;;;20.90;89.60;;;;;;5036571;28;20052;-83
2021/08/23 19:09:13;;;;;;;4.35;2.80;;;20.90;90.00;;;;;;5037331;28;20021;-86
2021/08/23 19:11:40;;;;;;;4.00;2.92;;;20.90;90.10;;;;;;5038840;28;20029;-89
2021/08/23 19:14:06;;;;;;;5.47;2.70;;;20.90;90.20;;;;;;5040536;28;20465;-85
2021/08/23 19:16:32;;;;;;;3.92;2.83;;;20.90;90.30;;;;;;5040430;28;20071;-87
2021/08/23 19:18:57;;;;;;;3.45;2.78;;;20.90;90.40;;;;;;5058911;28;20092;-86
2021/08/23 19:21:23;;;;;;;3.42;2.80;;;20.90;90.40;;;;;;5039545;28;20033;-88
2021/08/23 19:23:49;;;;;;;4.30;2.70;;;20.80;90.50;;;;;;5041301;28;20393;-88
2021/08/23 19:26:15;;;;;;;3.55;2.67;;;20.80;90.60;;;;;;5040427;28;20035;-88
2021/08/23 19:28:43;;;;;;;4.13;2.70;;;20.80;90.70;;;;;;5052196;28;20454;-87
2021/08/23 19:31:08;;;;;;;4.25;2.80;;;20.80;90.90;;;;;;5024067;28;20105;-86
2021/08/23 19:33:34;;;;;;;5.53;2.70;;;20.70;91.00;;;;;;5020782;28;20482;-87
2021/08/23 19:36:00;;;;;;;3.78;2.75;;;20.70;91.00;;;;;;5038515;28;20029;-88
2021/08/23 19:38:26;;;;;;;5.75;2.70;;;20.70;91.30;;;;;;5056801;28;20592;-85
2021/08/23 19:40:51;;;;;;;2.85;2.42;;;20.70;91.30;;;;;;5039639;28;20029;-86
2021/08/23 19:43:18;;;;;;;3.83;2.55;;;20.60;91.40;;;;;;5038888;28;20037;-88
2021/08/23 19:45:43;;;;;;;3.38;2.47;;;20.60;91.50;;;;;;5033672;28;20032;-85
2021/08/23 19:48:09;;;;;;;3.72;2.95;;;20.60;91.60;;;;;;5061298;28;20029;-83
2021/08/23 19:50:35;;;;;;;3.85;2.65;;;20.60;91.60;;;;;;5041145;28;20060;-85
2021/08/23 19:53:00;;;;;;;4.78;2.83;;;20.60;91.80;;;;;;5057646;28;20074;-87
2021/08/23 19:55:26;;;;;;;2.72;2.40;;;20.60;91.80;;;;;;5047397;28;20266;-87
2021/08/23 19:57:57;;;;;;;3.72;2.67;;;20.50;91.80;;;;;;5046837;28;20036;-89
2021/08/23 20:00:30;;;;;;;3.63;2.60;;;20.50;91.90;;;;;;5047175;28;20112;-88
2021/08/23 20:02:56;;;;;;;3.20;2.40;;;20.50;91.90;;;;;;5047835;28;20077;-88
2021/08/23 20:05:23;;;;;;;3.50;2.50;;;20.50;92.10;;;;;;5044064;28;20119;-82
2021/08/23 20:07:48;;;;;;;2.67;2.35;;;20.50;92.20;;;;;;5042450;28;20029;-85
2021/08/23 20:10:14;;;;;;;3.33;2.45;;;20.50;92.00;;;;;;5043827;28;20059;-82
2021/08/23 20:12:40;;;;;;;4.45;2.50;;;20.50;92.00;;;;;;5041049;28;20106;-89
2021/08/23 20:15:08;;;;;;;3.38;2.25;;;20.50;92.00;;;;;;5044638;28;20021;-85
2021/08/23 20:17:34;;;;;;;4.15;2.67;;;20.50;92.30;;;;;;5042280;28;20025;-85
2021/08/23 20:20:02;;;;;;;3.33;2.50;;;20.50;92.20;;;;;;5041038;28;20029;-87
2021/08/23 20:22:30;;;;;;;2.83;2.22;;;20.50;92.40;;;;;;5038369;28;20537;-87
2021/08/23 20:24:57;;;;;;;6.00;2.85;;;20.50;92.30;;;;;;5036308;28;20063;-90
2021/08/23 20:27:22;;;;;;;3.35;2.22;;;20.50;92.50;;;;;;5044185;28;20032;-88
2021/08/23 20:29:48;;;;;;;2.65;2.40;;;20.50;92.50;;;;;;5044059;28;20036;-88
2021/08/23 20:32:14;;;;;;;4.00;2.85;;;20.50;92.40;;;;;;5040137;28;20035;-86
2021/08/23 20:34:41;;;;;;;3.20;2.55;;;20.40;92.40;;;;;;5040955;28;20106;-86
2021/08/23 20:37:37;;;;;;;3.60;2.95;;;20.40;92.30;;;;;;5041554;28;20025;-86
2021/08/23 20:40:01;;;;;;;3.97;2.45;;;20.40;92.50;;;;;;5057259;28;20032;-88
2021/08/23 20:42:27;;;;;;;2.90;2.60;;;20.40;92.60;;;;;;5039217;28;20029;-87
2021/08/23 20:44:53;;;;;;;3.78;2.75;;;20.40;92.40;;;;;;5038805;28;20036;-86
2021/08/23 20:47:21;;;;;;;5.30;2.45;;;20.40;92.50;;;;;;5036008;28;20040;-85
2021/08/23 20:49:48;;;;;;;3.10;2.30;;;20.40;92.70;;;;;;5040604;28;20029;-88
2021/08/23 20:52:19;;;;;;;5.15;2.80;;;20.30;92.70;;;;;;5041183;28;20385;-89
2021/08/23 20:54:45;;;;;;;2.70;2.35;;;20.30;92.80;;;;;;5026071;28;20033;-91
2021/08/23 20:57:11;;;;;;;6.85;2.72;;;20.30;92.80;;;;;;5059712;28;20028;-84
2021/08/23 20:59:37;;;;;;;4.00;2.30;;;20.30;92.70;;;;;;5045354;28;20092;-89
2021/08/23 21:02:03;;;;;;;3.38;2.67;;;20.30;92.70;;;;;;5044409;28;20111;-88
2021/08/23 21:04:34;;;;;;;2.28;1.95;;;20.30;92.70;;;;;;5043922;28;20098;-91
2021/08/23 21:07:00;;;;;;;2.85;2.35;;;20.30;92.50;;;;;;5044246;28;20021;-88
2021/08/23 21:09:26;;;;;;;2.95;2.35;;;20.30;92.50;;;;;;5042848;28;20075;-87
2021/08/23 21:11:52;;;;;;;3.50;2.50;;;20.30;92.50;;;;;;5039284;28;20017;-86
2021/08/23 21:14:20;;;;;;;4.20;3.10;;;20.30;92.50;;;;;;5041521;28;20509;-88
2021/08/23 21:16:46;;;;;;;5.32;2.13;;;20.20;92.20;;;;;;5042707;28;20025;-89
2021/08/23 21:19:12;;;;;;;3.47;2.40;;;20.30;92.50;;;;;;5040909;28;20036;-82
2021/08/23 21:21:40;;;;;;;3.42;2.38;;;20.30;92.20;;;;;;5058501;28;20025;-88
2021/08/23 21:24:18;;;;;;;4.00;2.42;;;20.20;92.00;;;;;;5042525;28;20055;-91
2021/08/23 21:26:55;;;;;;;3.47;2.50;;;20.20;92.10;;;;;;5052874;28;20025;-89
2021/08/23 21:29:22;;;;;;;2.70;2.30;;;20.20;91.90;;;;;;5029797;28;20039;-87
2021/08/23 21:31:50;;;;;;;5.10;2.80;;;20.20;92.30;;;;;;5038068;28;20039;-87
2021/08/23 21:34:21;;;;;;;5.00;2.75;;;20.10;92.00;;;;;;5038003;28;20094;-87
2021/08/23 21:36:52;;;;;;;3.87;2.93;;;20.20;92.10;;;;;;5056288;28;20087;-89
2021/08/23 21:39:21;;;;;;;3.80;2.50;;;20.10;92.20;;;;;;5041225;28;20111;-88
2021/08/23 21:41:46;;;;;;;4.25;2.65;;;20.10;91.90;;;;;;5035910;28;20021;-87
2021/08/23 21:44:14;;;;;;;2.63;2.25;;;20.10;92.10;;;;;;5052176;28;20039;-83
2021/08/23 21:46:39;;;;;;;3.55;2.58;;;20.10;92.10;;;;;;5035047;28;20030;-88
2021/08/23 21:49:05;;;;;;;4.32;2.63;;;20.00;92.00;;;;;;5036324;28;20029;-88
2021/08/23 21:51:31;;;;;;;3.65;2.22;;;20.00;92.20;;;;;;5034265;28;20036;-89
2021/08/23 21:53:56;;;;;;;4.55;2.15;;;20.00;92.20;;;;;;5035478;28;20382;-89
2021/08/23 21:56:22;;;;;;;5.15;2.30;;;20.00;92.30;;;;;;5032745;28;20061;-89
2021/08/23 21:58:47;;;;;;;2.67;2.33;;;19.90;92.30;;;;;;5033997;28;20036;-89
2021/08/23 22:01:13;;;;;;;3.67;2.25;;;19.90;92.30;;;;;;5037512;28;20479;-85
2021/08/23 22:03:39;;;;;;;4.72;2.35;;;20.00;92.40;;;;;;5038265;28;20032;-90
2021/08/23 22:06:06;;;;;;;3.88;2.30;;;19.90;92.30;;;;;;5056455;28;20377;-85
2021/08/23 22:08:33;;;;;;;3.78;2.30;;;19.90;92.40;;;;;;5038101;28;20025;-90
2021/08/23 22:10:59;;;;;;;3.13;2.45;;;19.90;92.40;;;;;;5053378;28;20481;-89
2021/08/23 22:13:25;;;;;;;2.85;2.20;;;19.90;92.50;;;;;;5036009;28;20075;-87
2021/08/23 22:15:51;;;;;;;3.10;2.15;;;19.90;92.60;;;;;;5037972;28;20043;-90
2021/08/23 22:18:16;;;;;;;4.05;2.33;;;19.80;92.50;;;;;;5055662;28;20454;-85
2021/08/23 22:20:42;;;;;;;3.35;2.40;;;19.80;92.60;;;;;;5038520;28;20021;-88
2021/08/23 22:23:08;;;;;;;2.80;2.30;;;19.80;92.80;;;;;;5038756;28;20056;-90
2021/08/23 22:25:33;;;;;;;2.60;2.20;;;19.80;92.90;;;;;;5037946;28;20501;-83
2021/08/23 22:28:01;;;;;;;3.72;2.40;;;19.80;92.90;;;;;;5038943;28;20071;-83
2021/08/23 22:30:27;;;;;;;3.08;2.50;;;19.90;93.10;;;;;;5036986;28;20044;-84
2021/08/23 22:32:53;;;;;;;2.80;2.25;;;19.80;93.00;;;;;;5038709;28;20021;-82
2021/08/23 22:35:19;;;;;;;5.57;2.72;;;19.80;93.20;;;;;;5038306;28;20029;-83
2021/08/23 22:37:45;;;;;;;4.18;2.55;;;19.80;93.30;;;;;;5038699;28;20021;-84
2021/08/23 22:40:13;;;;;;;3.70;2.35;;;19.80;93.30;;;;;;5038531;28;20373;-84
2021/08/23 22:42:39;;;;;;;4.43;2.28;;;19.80;93.30;;;;;;5038042;28;20432;-83
2021/08/23 22:45:06;;;;;;;4.20;2.70;;;19.70;93.20;;;;;;5038190;28;20021;-82
2021/08/23 22:47:33;;;;;;;3.17;2.53;;;19.70;93.50;;;;;;5038178;28;20025;-82
2021/08/23 22:49:59;;;;;;;4.43;2.50;;;19.70;93.50;;;;;;5038477;28;20025;-86
2021/08/23 22:52:24;;;;;;;3.03;2.20;;;19.70;93.50;;;;;;5038660;28;20033;-83
2021/08/23 22:54:50;;;;;;;3.00;2.40;;;19.70;93.40;;;;;;5038629;28;20079;-83
2021/08/23 22:57:16;;;;;;;3.78;2.35;;;19.70;93.50;;;;;;5038558;28;20083;-84
2021/08/23 22:59:41;;;;;;;4.32;2.90;;;19.70;93.70;;;;;;5038472;28;20393;-83
2021/08/23 23:02:07;;;;;;;3.08;2.45;;;19.60;93.60;;;;;;5038611;28;20040;-83
2021/08/23 23:04:33;;;;;;;3.40;2.45;;;19.60;93.70;;;;;;5055535;28;20049;-83
2021/08/23 23:06:58;;;;;;;4.30;2.60;;;19.60;93.50;;;;;;5038555;28;20028;-83
2021/08/23 23:09:24;;;;;;;3.72;2.60;;;19.60;93.60;;;;;;5037509;28;20098;-83
2021/08/23 23:11:49;;;;;;;5.43;2.50;;;19.60;93.40;;;;;;5038585;28;20031;-83
2021/08/23 23:14:15;;;;;;;3.03;2.47;;;19.60;93.60;;;;;;5038263;28;20035;-83
2021/08/23 23:16:41;;;;;;;4.32;2.38;;;19.60;93.70;;;;;;5037571;28;20020;-83
2021/08/23 23:19:07;;;;;;;3.50;2.40;;;19.50;93.80;;;;;;5038044;28;20032;-83
2021/08/23 23:21:33;;;;;;;4.57;2.65;;;19.50;93.60;;;;;;5037318;28;20029;-83
2021/08/23 23:23:58;;;;;;;2.25;2.03;;;19.50;93.60;;;;;;5038293;28;20041;-83
2021/08/23 23:26:26;;;;;;;3.83;2.55;;;19.40;93.60;;;;;;5037790;28;20458;-83
2021/08/23 23:28:52;;;;;;;2.83;2.42;;;19.50;93.80;;;;;;5038243;28;20025;-83
2021/08/23 23:31:18;;;;;;;3.15;2.47;;;19.50;93.90;;;;;;5037826;28;20037;-84
2021/08/23 23:33:43;;;;;;;4.40;2.45;;;19.50;93.80;;;;;;5037908;28;20040;-83
2021/08/23 23:36:09;;;;;;;3.58;2.75;;;19.40;93.80;;;;;;5037864;28;20033;-83
2021/08/23 23:38:35;;;;;;;6.00;2.30;;;19.40;93.90;;;;;;5055032;28;20036;-83
2021/08/23 23:41:00;;;;;;;3.53;2.38;;;19.30;93.90;;;;;;5055594;28;20051;-82
2021/08/23 23:43:26;;;;;;;2.65;2.45;;;19.30;93.90;;;;;;5037212;28;20493;-83
2021/08/23 23:45:51;;;;;;;3.30;2.30;;;19.20;94.10;;;;;;5054938;28;20029;-83
2021/08/23 23:48:17;;;;;;;2.85;2.45;;;19.20;94.10;;;;;;5037403;28;20029;-82
2021/08/23 23:50:43;;;;;;;3.90;2.42;;;19.20;94.20;;;;;;5055070;28;20025;-83
2021/08/23 23:53:09;;;;;;;3.42;2.50;;;19.10;94.20;;;;;;5037983;28;20041;-83
2021/08/23 23:55:34;;;;;;;3.83;2.67;;;19.10;94.30;;;;;;5054840;28;20428;-83
2021/08/23 23:58:00;;;;;;;3.20;2.65;;;19.00;94.20;;;;;;5037552;28;20021;-83
